createdAt,value
2019-03-03T00:00:27.889Z,9.50
2019-03-03T00:02:56.632Z,8.90
2019-03-03T00:05:25.135Z,8.90
2019-03-03T00:07:53.853Z,8.90
2019-03-03T00:10:22.380Z,8.90
2019-03-03T00:12:50.837Z,8.90
2019-03-03T00:15:19.277Z,8.80
2019-03-03T00:17:47.809Z,8.80
2019-03-03T00:20:16.580Z,8.90
2019-03-03T00:22:45.036Z,8.90
2019-03-03T00:25:14.803Z,8.90
2019-03-03T00:27:43.330Z,8.90
2019-03-03T00:30:16.641Z,8.80
2019-03-03T00:32:45.165Z,8.90
2019-03-03T00:35:14.072Z,9.00
2019-03-03T00:37:44.223Z,9.00
2019-03-03T00:40:14.456Z,9.00
2019-03-03T00:43:02.530Z,8.90
2019-03-03T00:45:36.746Z,8.90
2019-03-03T00:48:22.452Z,9.00
2019-03-03T00:50:58.433Z,8.90
2019-03-03T00:53:45.059Z,8.90
2019-03-03T00:56:15.165Z,8.90
2019-03-03T00:58:45.254Z,9.00
2019-03-03T01:01:15.480Z,9.00
2019-03-03T01:03:45.567Z,9.00
2019-03-03T01:06:18.705Z,8.90
2019-03-03T01:09:04.860Z,8.90
2019-03-03T01:11:34.951Z,8.90
2019-03-03T01:14:14.074Z,9.10
2019-03-03T01:16:56.260Z,9.00
2019-03-03T01:19:29.084Z,8.90
2019-03-03T01:22:02.079Z,8.90
2019-03-03T01:24:47.471Z,8.90
2019-03-03T01:27:15.925Z,8.90
2019-03-03T01:29:44.361Z,8.90
2019-03-03T01:32:12.828Z,8.90
2019-03-03T01:34:41.345Z,8.90
2019-03-03T01:37:09.912Z,9.00
2019-03-03T01:39:38.428Z,9.10
2019-03-03T01:42:06.871Z,9.00
2019-03-03T01:44:35.336Z,9.00
2019-03-03T01:47:03.953Z,9.00
2019-03-03T01:49:32.484Z,9.00
2019-03-03T01:52:01.122Z,9.00
2019-03-03T01:54:29.657Z,8.90
2019-03-03T01:56:58.169Z,9.00
2019-03-03T01:59:28.042Z,9.10
2019-03-03T02:01:56.548Z,9.10
2019-03-03T02:04:25.001Z,9.00
2019-03-03T02:06:53.522Z,9.10
2019-03-03T02:09:22.049Z,9.00
2019-03-03T02:11:50.566Z,9.10
2019-03-03T02:14:19.011Z,9.00
2019-03-03T02:16:48.421Z,9.10
2019-03-03T02:19:16.881Z,9.10
2019-03-03T02:21:45.423Z,9.00
2019-03-03T02:24:13.998Z,9.10
2019-03-03T02:26:42.536Z,9.00
2019-03-03T02:29:11.035Z,9.00
2019-03-03T02:31:39.506Z,9.00
2019-03-03T02:34:07.937Z,9.10
2019-03-03T02:36:36.425Z,9.10
2019-03-03T02:39:08.340Z,9.20
2019-03-03T02:41:36.811Z,9.30
2019-03-03T02:44:05.470Z,9.30
2019-03-03T02:46:33.961Z,9.20
2019-03-03T02:49:02.406Z,9.20
2019-03-03T02:51:30.867Z,9.30
2019-03-03T02:53:59.309Z,9.30
2019-03-03T02:56:27.833Z,9.20
2019-03-03T02:58:56.270Z,9.30
2019-03-03T03:01:29.222Z,9.20
2019-03-03T03:03:57.669Z,9.20
2019-03-03T03:06:33.561Z,9.20
2019-03-03T03:09:09.423Z,9.20
2019-03-03T03:11:39.729Z,9.30
2019-03-03T03:14:09.799Z,9.20
2019-03-03T03:16:42.729Z,9.20
2019-03-03T03:19:15.230Z,9.20
2019-03-03T03:22:01.651Z,9.30
2019-03-03T03:24:31.797Z,9.20
2019-03-03T03:27:01.903Z,9.30
2019-03-03T03:29:48.127Z,9.30
2019-03-03T03:32:21.197Z,9.20
2019-03-03T03:34:57.113Z,9.20
2019-03-03T03:37:39.136Z,9.20
2019-03-03T03:40:14.296Z,9.20
2019-03-03T03:42:44.405Z,9.20
2019-03-03T03:45:14.670Z,9.30
2019-03-03T03:47:47.247Z,9.30
2019-03-03T03:50:23.193Z,9.40
2019-03-03T03:52:53.358Z,9.40
2019-03-03T03:55:23.516Z,9.40
2019-03-03T03:58:05.927Z,9.30
2019-03-03T04:00:42.478Z,9.30
2019-03-03T04:03:28.373Z,9.40
2019-03-03T04:06:10.935Z,9.30
2019-03-03T04:08:56.277Z,9.30
2019-03-03T04:11:42.633Z,9.40
2019-03-03T04:14:21.754Z,9.40
2019-03-03T04:17:01.123Z,9.50
2019-03-03T04:19:31.226Z,9.50
2019-03-03T04:22:08.421Z,9.40
2019-03-03T04:24:44.333Z,9.50
2019-03-03T04:27:14.429Z,9.40
2019-03-03T04:29:59.850Z,9.50
2019-03-03T04:32:38.985Z,9.50
2019-03-03T04:35:09.237Z,9.50
2019-03-03T04:37:48.439Z,9.50
2019-03-03T04:40:27.342Z,9.50
2019-03-03T04:43:09.805Z,9.50
2019-03-03T04:45:39.905Z,9.40
2019-03-03T04:48:09.995Z,9.40
2019-03-03T04:50:40.169Z,9.40
2019-03-03T04:53:12.905Z,9.30
2019-03-03T04:55:48.920Z,9.40
2019-03-03T04:58:34.044Z,9.40
2019-03-03T05:01:04.176Z,9.40
2019-03-03T05:03:46.177Z,9.40
2019-03-03T05:06:29.579Z,9.30
2019-03-03T05:08:59.724Z,9.30
2019-03-03T05:12:04.700Z,9.40
2019-03-03T05:14:40.104Z,9.30
2019-03-03T05:17:14.039Z,9.30
2019-03-03T05:19:44.493Z,9.30
2019-03-03T05:22:13.024Z,9.30
2019-03-03T05:24:41.461Z,9.30
2019-03-03T05:27:09.933Z,9.30
2019-03-03T05:29:38.372Z,9.30
2019-03-03T05:32:06.830Z,9.30
2019-03-03T05:34:35.317Z,9.20
2019-03-03T05:37:03.751Z,9.30
2019-03-03T05:39:32.208Z,9.30
2019-03-03T05:42:00.640Z,9.40
2019-03-03T05:44:29.232Z,9.50
2019-03-03T05:46:57.663Z,9.50
2019-03-03T05:49:26.137Z,9.60
2019-03-03T05:51:54.582Z,9.60
2019-03-03T05:54:23.036Z,9.60
2019-03-03T05:56:51.548Z,9.60
2019-03-03T05:59:20.069Z,9.60
2019-03-03T06:01:48.651Z,9.60
2019-03-03T06:04:17.543Z,9.60
2019-03-03T06:06:45.994Z,9.60
2019-03-03T06:09:14.459Z,9.60
2019-03-03T06:11:42.909Z,9.60
2019-03-03T06:14:11.384Z,9.60
2019-03-03T06:16:39.904Z,9.60
2019-03-03T06:19:08.375Z,9.60
2019-03-03T06:21:36.887Z,9.50
2019-03-03T06:24:05.412Z,9.50
2019-03-03T06:26:33.856Z,9.50
2019-03-03T06:29:02.403Z,9.60
2019-03-03T06:31:30.833Z,9.60
2019-03-03T06:33:59.278Z,9.40
2019-03-03T06:36:27.742Z,9.50
2019-03-03T06:38:56.480Z,9.60
2019-03-03T06:41:24.960Z,9.60
2019-03-03T06:43:53.388Z,9.60
2019-03-03T06:46:21.849Z,9.70
2019-03-03T06:48:53.224Z,9.70
2019-03-03T06:51:21.680Z,9.70
2019-03-03T06:53:50.116Z,9.80
2019-03-03T06:56:18.563Z,9.80
2019-03-03T06:58:47.004Z,9.80
2019-03-03T07:01:15.502Z,9.80
2019-03-03T07:03:43.941Z,9.80
2019-03-03T07:06:12.422Z,9.90
2019-03-03T07:08:40.851Z,9.90
2019-03-03T07:11:10.102Z,9.90
2019-03-03T07:13:38.729Z,9.70
2019-03-03T07:16:07.200Z,9.60
2019-03-03T07:18:35.652Z,9.50
2019-03-03T07:21:04.083Z,9.50
2019-03-03T07:23:32.540Z,9.50
2019-03-03T07:26:00.981Z,9.50
2019-03-03T07:28:29.445Z,9.60
2019-03-03T07:30:57.876Z,9.60
2019-03-03T07:33:27.993Z,9.60
2019-03-03T07:35:56.501Z,9.70
2019-03-03T07:38:24.949Z,9.70
2019-03-03T07:40:53.390Z,9.70
2019-03-03T07:43:21.858Z,9.60
2019-03-03T07:45:50.370Z,9.60
2019-03-03T07:48:18.860Z,9.50
2019-03-03T07:50:47.310Z,9.50
2019-03-03T07:53:15.772Z,9.50
2019-03-03T07:55:44.220Z,9.50
2019-03-03T07:58:12.683Z,9.50
2019-03-03T08:00:41.122Z,9.40
2019-03-03T08:03:09.569Z,9.50
2019-03-03T08:05:38.063Z,9.50
2019-03-03T08:08:06.517Z,9.50
2019-03-03T08:10:35.094Z,9.40
2019-03-03T08:13:09.187Z,9.40
2019-03-03T08:15:33.783Z,9.30
2019-03-03T08:18:02.330Z,9.30
2019-03-03T08:20:30.882Z,9.20
2019-03-03T08:22:59.368Z,9.20
2019-03-03T08:25:27.806Z,9.20
2019-03-03T08:27:56.254Z,9.20
2019-03-03T08:30:24.708Z,9.20
2019-03-03T08:32:53.148Z,9.20
2019-03-03T08:35:24.059Z,9.20
2019-03-03T08:37:52.549Z,9.20
2019-03-03T08:40:21.002Z,9.20
2019-03-03T08:42:51.146Z,9.20
2019-03-03T08:45:33.236Z,9.20
2019-03-03T08:48:15.188Z,9.20
2019-03-03T08:50:51.076Z,9.20
2019-03-03T08:53:23.892Z,9.30
2019-03-03T08:55:59.528Z,9.30
2019-03-03T08:58:47.555Z,9.30
2019-03-03T09:01:36.054Z,9.30
2019-03-03T09:04:06.233Z,9.30
2019-03-03T09:06:36.305Z,9.40
2019-03-03T09:09:08.324Z,9.40
2019-03-03T09:11:41.549Z,9.40
2019-03-03T09:14:29.929Z,9.50
2019-03-03T09:17:08.936Z,9.50
2019-03-03T09:19:39.049Z,9.50
2019-03-03T09:22:15.125Z,9.50
2019-03-03T09:25:01.698Z,9.60
2019-03-03T09:27:37.601Z,9.60
2019-03-03T09:30:28.033Z,9.60
2019-03-03T09:32:58.184Z,9.60
2019-03-03T09:35:47.691Z,9.60
2019-03-03T09:38:17.840Z,9.70
2019-03-03T09:40:47.946Z,9.70
2019-03-03T09:43:24.101Z,9.70
2019-03-03T09:46:03.130Z,9.70
2019-03-03T09:48:33.648Z,9.70
2019-03-03T09:51:09.580Z,9.70
2019-03-03T09:53:42.306Z,9.70
2019-03-03T09:56:15.131Z,9.70
2019-03-03T09:59:01.598Z,9.80
2019-03-03T10:01:50.045Z,9.90
2019-03-03T10:04:35.907Z,9.90
2019-03-03T10:07:13.664Z,9.90
2019-03-03T10:09:46.774Z,9.90
2019-03-03T10:12:16.931Z,9.90
2019-03-03T10:14:50.228Z,10.00
2019-03-03T10:17:20.634Z,10.10
2019-03-03T10:19:53.229Z,10.20
2019-03-03T10:22:23.529Z,10.20
2019-03-03T10:24:59.853Z,10.10
2019-03-03T10:27:46.314Z,10.10
2019-03-03T10:30:17.486Z,10.00
2019-03-03T10:32:50.057Z,9.80
2019-03-03T10:35:26.128Z,9.70
2019-03-03T10:37:59.047Z,9.70
2019-03-03T10:40:29.155Z,9.80
2019-03-03T10:43:14.634Z,9.80
2019-03-03T10:45:53.807Z,9.80
2019-03-03T10:48:23.884Z,9.90
2019-03-03T10:50:53.981Z,9.90
2019-03-03T10:53:27.043Z,10.00
2019-03-03T10:56:15.470Z,10.00
2019-03-03T10:58:48.388Z,10.10
2019-03-03T11:01:24.353Z,10.10
2019-03-03T11:04:09.816Z,10.00
2019-03-03T11:06:54.914Z,10.00
2019-03-03T11:09:41.786Z,10.10
2019-03-03T11:12:11.964Z,10.10
2019-03-03T11:14:51.350Z,10.20
2019-03-03T11:17:24.407Z,10.20
2019-03-03T11:19:57.577Z,10.30
2019-03-03T11:22:27.677Z,10.30
2019-03-03T11:25:03.506Z,10.50
2019-03-03T11:27:36.480Z,10.40
2019-03-03T11:30:27.517Z,10.50
2019-03-03T11:33:00.422Z,10.50
2019-03-03T11:35:30.649Z,10.50
2019-03-03T11:38:03.859Z,10.60
2019-03-03T11:40:33.940Z,10.70
2019-03-03T11:43:04.031Z,10.70
2019-03-03T11:45:36.798Z,10.80
2019-03-03T11:48:26.400Z,10.80
2019-03-03T11:51:01.996Z,10.80
2019-03-03T11:53:34.798Z,10.90
2019-03-03T11:56:05.051Z,10.90
2019-03-03T11:58:44.357Z,10.90
2019-03-03T12:01:30.745Z,11.00
2019-03-03T12:04:17.334Z,11.00
2019-03-03T12:06:53.513Z,11.10
2019-03-03T12:09:29.542Z,11.20
2019-03-03T12:12:14.893Z,11.10
2019-03-03T12:15:00.944Z,11.20
2019-03-03T12:17:46.274Z,11.10
2019-03-03T12:20:22.790Z,11.10
2019-03-03T12:23:09.405Z,11.00
2019-03-03T12:25:42.460Z,10.90
2019-03-03T12:28:15.612Z,10.90
2019-03-03T12:30:45.740Z,10.90
2019-03-03T12:33:15.828Z,10.90
2019-03-03T12:35:52.028Z,10.90
2019-03-03T12:38:27.898Z,10.90
2019-03-03T12:41:10.303Z,10.90
2019-03-03T12:43:40.384Z,11.00
2019-03-03T12:46:13.219Z,11.00
2019-03-03T12:48:59.529Z,10.80
2019-03-03T12:51:44.712Z,10.80
2019-03-03T12:54:21.507Z,10.70
2019-03-03T12:56:51.640Z,10.70
2019-03-03T12:59:38.237Z,10.70
2019-03-03T13:02:24.241Z,10.70
2019-03-03T13:05:09.446Z,10.70
2019-03-03T13:07:42.609Z,10.70
2019-03-03T13:10:24.610Z,10.70
2019-03-03T13:13:00.521Z,10.70
2019-03-03T13:15:39.538Z,10.70
2019-03-03T13:18:09.740Z,10.60
2019-03-03T13:20:42.861Z,10.60
2019-03-03T13:23:18.777Z,10.60
2019-03-03T13:25:48.947Z,10.60
2019-03-03T13:28:27.895Z,10.60
2019-03-03T13:31:01.074Z,10.60
2019-03-03T13:33:40.249Z,10.60
2019-03-03T13:36:13.260Z,10.60
2019-03-03T13:38:46.424Z,10.70
2019-03-03T13:41:19.560Z,10.70
2019-03-03T13:43:48.119Z,10.80
2019-03-03T13:46:16.726Z,10.80
2019-03-03T13:48:45.184Z,10.70
2019-03-03T13:51:13.697Z,10.70
2019-03-03T13:53:42.221Z,10.80
2019-03-03T13:56:10.859Z,10.90
2019-03-03T13:58:39.308Z,11.00
2019-03-03T14:01:07.904Z,11.00
2019-03-03T14:03:36.620Z,11.10
2019-03-03T14:06:05.249Z,9.20
2019-03-03T14:08:33.883Z,11.10
2019-03-03T14:11:02.323Z,11.00
2019-03-03T14:13:30.789Z,11.10
2019-03-03T14:15:59.370Z,11.10
2019-03-03T14:18:27.938Z,11.10
2019-03-03T14:20:56.421Z,11.20
2019-03-03T14:23:25.017Z,11.20
2019-03-03T14:25:53.544Z,11.20
2019-03-03T14:28:22.176Z,11.20
2019-03-03T14:30:51.708Z,11.20
2019-03-03T14:33:20.163Z,11.10
2019-03-03T14:35:48.828Z,11.20
2019-03-03T14:38:17.296Z,11.10
2019-03-03T14:40:45.928Z,11.10
2019-03-03T14:43:15.425Z,11.10
2019-03-03T14:45:44.034Z,11.10
2019-03-03T14:48:12.539Z,11.20
2019-03-03T14:50:41.133Z,11.10
2019-03-03T14:53:09.636Z,11.10
2019-03-03T14:55:38.096Z,11.10
2019-03-03T14:58:06.609Z,11.10
2019-03-03T15:00:35.225Z,11.20
2019-03-03T15:03:06.173Z,11.30
2019-03-03T15:05:34.988Z,11.40
2019-03-03T15:08:03.559Z,11.40
2019-03-03T15:10:32.179Z,11.40
2019-03-03T15:13:00.687Z,11.50
2019-03-03T15:15:35.058Z,11.40
2019-03-03T15:18:04.615Z,11.50
2019-03-03T15:20:33.620Z,11.50
2019-03-03T15:23:02.396Z,11.50
2019-03-03T15:25:30.929Z,11.60
2019-03-03T15:27:59.514Z,11.60
2019-03-03T15:30:28.117Z,11.60
2019-03-03T15:32:56.624Z,11.60
2019-03-03T15:35:25.166Z,11.70
2019-03-03T15:37:53.920Z,11.70
2019-03-03T15:40:26.887Z,11.60
2019-03-03T15:42:55.401Z,11.70
2019-03-03T15:45:26.927Z,11.70
2019-03-03T15:47:55.448Z,11.70
2019-03-03T15:50:24.153Z,11.70
2019-03-03T15:52:52.657Z,11.70
2019-03-03T15:55:26.569Z,11.70
2019-03-03T15:57:55.014Z,11.80
2019-03-03T16:00:40.376Z,11.80
2019-03-03T16:03:08.822Z,11.80
2019-03-03T16:05:37.281Z,11.80
2019-03-03T16:08:05.724Z,11.80
2019-03-03T16:10:34.176Z,11.80
2019-03-03T16:13:03.875Z,11.80
2019-03-03T16:15:32.770Z,11.80
2019-03-03T16:18:01.208Z,11.80
2019-03-03T16:20:29.732Z,11.90
2019-03-03T16:23:02.984Z,11.80
2019-03-03T16:25:31.444Z,11.80
2019-03-03T16:27:59.884Z,11.90
2019-03-03T16:30:28.460Z,11.80
2019-03-03T16:32:56.945Z,11.90
2019-03-03T16:35:25.464Z,11.90
2019-03-03T16:37:53.918Z,11.90
2019-03-03T16:40:26.393Z,11.90
2019-03-03T16:42:54.929Z,11.90
2019-03-03T16:45:23.685Z,11.90
2019-03-03T16:47:52.350Z,11.90
2019-03-03T16:50:22.058Z,11.90
2019-03-03T16:52:50.926Z,11.90
2019-03-03T16:55:20.670Z,11.80
2019-03-03T16:57:49.259Z,11.90
2019-03-03T17:00:23.148Z,11.80
2019-03-03T17:02:51.723Z,11.80
2019-03-03T17:05:22.999Z,11.80
2019-03-03T17:07:51.658Z,11.80
2019-03-03T17:10:20.357Z,11.70
2019-03-03T17:12:48.954Z,11.70
2019-03-03T17:15:22.399Z,11.70
2019-03-03T17:17:51.405Z,11.70
2019-03-03T17:20:20.383Z,11.70
2019-03-03T17:22:49.029Z,11.70
2019-03-03T17:25:20.071Z,11.70
2019-03-03T17:27:48.676Z,11.70
2019-03-03T17:30:19.872Z,11.70
2019-03-03T17:32:48.496Z,11.70
2019-03-03T17:35:17.217Z,11.70
2019-03-03T17:37:45.808Z,11.60
2019-03-03T17:40:17.053Z,11.60
2019-03-03T17:42:45.843Z,11.70
2019-03-03T17:45:16.976Z,11.60
2019-03-03T17:47:45.794Z,11.60
2019-03-03T17:50:18.889Z,11.50
2019-03-03T17:52:47.537Z,11.50
2019-03-03T17:55:16.667Z,11.50
2019-03-03T17:57:45.655Z,11.50
2019-03-03T18:00:17.106Z,11.60
2019-03-03T18:02:45.689Z,11.60
2019-03-03T18:05:15.484Z,11.50
2019-03-03T18:07:44.108Z,11.50
2019-03-03T18:10:13.473Z,11.40
2019-03-03T18:12:42.007Z,11.60
2019-03-03T18:15:12.197Z,11.50
2019-03-03T18:17:41.261Z,11.50
2019-03-03T18:20:17.811Z,11.50
2019-03-03T18:22:46.471Z,11.60
2019-03-03T18:25:17.089Z,11.60
2019-03-03T18:27:45.684Z,11.60
2019-03-03T18:30:18.841Z,11.60
2019-03-03T18:32:47.389Z,11.70
2019-03-03T18:35:16.090Z,13.10
2019-03-03T18:37:44.529Z,11.60
2019-03-03T18:40:15.639Z,11.70
2019-03-03T18:42:44.420Z,11.60
2019-03-03T18:45:17.892Z,11.60
2019-03-03T18:47:46.571Z,11.60
2019-03-03T18:50:17.932Z,11.60
2019-03-03T18:52:46.924Z,11.60
2019-03-03T18:55:15.526Z,11.60
2019-03-03T18:57:44.023Z,11.60
2019-03-03T19:00:15.618Z,11.60
2019-03-03T19:02:44.134Z,11.50
2019-03-03T19:05:13.948Z,11.50
2019-03-03T19:07:42.453Z,11.60
2019-03-03T19:10:13.571Z,11.60
2019-03-03T19:12:42.080Z,11.60
2019-03-03T19:15:13.586Z,11.60
2019-03-03T19:17:42.160Z,11.60
2019-03-03T19:20:13.171Z,11.60
2019-03-03T19:22:41.854Z,11.60
2019-03-03T19:25:13.132Z,11.60
2019-03-03T19:27:41.748Z,11.60
2019-03-03T19:30:21.644Z,11.60
2019-03-03T19:32:53.257Z,11.60
2019-03-03T19:35:21.845Z,11.60
2019-03-03T19:37:50.338Z,11.60
2019-03-03T19:40:18.856Z,11.60
2019-03-03T19:42:47.459Z,11.60
2019-03-03T19:45:37.366Z,11.70
2019-03-03T19:48:07.100Z,11.70
2019-03-03T19:50:36.051Z,11.60
2019-03-03T19:53:05.627Z,11.70
2019-03-03T19:55:34.147Z,11.80
2019-03-03T19:58:02.857Z,11.80
2019-03-03T20:00:38.915Z,11.70
2019-03-03T20:03:07.181Z,11.80
2019-03-03T20:05:35.715Z,11.70
2019-03-03T20:08:04.718Z,11.80
2019-03-03T20:10:33.936Z,11.80
2019-03-03T20:13:02.728Z,11.80
2019-03-03T20:15:31.449Z,11.90
2019-03-03T20:18:00.046Z,11.90
2019-03-03T20:20:28.706Z,11.90
2019-03-03T20:22:59.143Z,12.00
2019-03-03T20:25:28.031Z,11.90
2019-03-03T20:27:56.675Z,12.00
2019-03-03T20:30:25.968Z,12.00
2019-03-03T20:32:54.573Z,12.00
2019-03-03T20:35:23.106Z,12.00
2019-03-03T20:37:51.872Z,12.00
2019-03-03T20:40:24.999Z,11.90
2019-03-03T20:42:54.777Z,11.90
2019-03-03T20:45:25.920Z,11.90
2019-03-03T20:47:54.361Z,11.90
2019-03-03T20:50:23.071Z,11.90
2019-03-03T20:52:52.157Z,12.00
2019-03-03T20:55:25.255Z,12.00
2019-03-03T20:57:53.837Z,11.90
2019-03-03T21:00:30.673Z,11.90
2019-03-03T21:03:00.717Z,12.00
2019-03-03T21:05:29.293Z,12.00
2019-03-03T21:07:57.959Z,12.00
2019-03-03T21:10:34.374Z,12.00
2019-03-03T21:13:02.883Z,12.10
2019-03-03T21:15:31.650Z,12.10
2019-03-03T21:18:00.217Z,12.10
2019-03-03T21:20:28.789Z,12.10
2019-03-03T21:22:57.291Z,12.10
2019-03-03T21:25:25.889Z,12.20
2019-03-03T21:27:54.603Z,12.10
2019-03-03T21:30:24.462Z,12.20
2019-03-03T21:32:53.259Z,12.20
2019-03-03T21:35:22.085Z,12.10
2019-03-03T21:37:50.661Z,12.20
2019-03-03T21:40:20.160Z,12.10
2019-03-03T21:42:48.697Z,12.20
2019-03-03T21:45:22.505Z,12.10
2019-03-03T21:47:51.087Z,12.10
2019-03-03T21:50:23.745Z,12.20
2019-03-03T21:52:52.490Z,12.30
2019-03-03T21:55:20.995Z,12.30
2019-03-03T21:57:49.678Z,12.30
2019-03-03T22:00:20.897Z,12.30
2019-03-03T22:02:50.286Z,12.30
2019-03-03T22:05:18.797Z,12.40
2019-03-03T22:07:47.347Z,12.40
2019-03-03T22:10:15.938Z,12.40
2019-03-03T22:12:44.401Z,12.30
2019-03-03T22:15:14.084Z,12.40
2019-03-03T22:17:42.625Z,12.30
2019-03-03T22:20:11.568Z,12.20
2019-03-03T22:22:40.163Z,12.00
2019-03-03T22:25:11.326Z,11.90
2019-03-03T22:27:40.329Z,11.90
2019-03-03T22:30:16.416Z,12.10
2019-03-03T22:32:44.886Z,12.00
2019-03-03T22:35:13.475Z,11.90
2019-03-03T22:37:42.004Z,12.90
2019-03-03T22:40:23.830Z,12.00
2019-03-03T22:42:52.431Z,12.00
2019-03-03T22:45:21.897Z,11.90
2019-03-03T22:47:50.511Z,12.00
2019-03-03T22:50:22.075Z,11.90
2019-03-03T22:52:50.692Z,11.80
2019-03-03T22:55:20.474Z,11.90
2019-03-03T22:57:49.082Z,11.90
2019-03-03T23:00:46.515Z,11.90
2019-03-03T23:03:21.035Z,11.90
2019-03-03T23:06:07.482Z,11.80
2019-03-03T23:08:45.163Z,11.80
2019-03-03T23:11:25.898Z,11.90
2019-03-03T23:14:15.494Z,11.80
2019-03-03T23:16:49.956Z,11.90
2019-03-03T23:19:39.631Z,11.70
2019-03-03T23:22:35.421Z,12.00
2019-03-03T23:25:21.884Z,12.10
2019-03-03T23:27:50.326Z,12.20
2019-03-03T23:30:18.956Z,12.10
2019-03-03T23:32:47.484Z,12.30
2019-03-03T23:35:15.943Z,12.40
2019-03-03T23:37:44.417Z,12.40
2019-03-03T23:40:12.933Z,12.40
2019-03-03T23:42:41.376Z,12.40
2019-03-03T23:45:11.061Z,12.50
2019-03-03T23:47:39.501Z,12.50
2019-03-03T23:50:09.545Z,12.50
2019-03-03T23:52:38.054Z,12.40
2019-03-03T23:55:09.546Z,12.40
2019-03-03T23:57:37.979Z,12.40
